Terminal Aerodrome Forecast
Issued by NWS Corpus Christi, TX

Home | Current Version | Previous Version | Text Only | Print | Product List | Glossary On
Versions: 1 2 3 4 5 6 7 8 9 10 11 12
000
FTUS44 KCRP 030532
TAFCRP
TAF
KCRP 030532Z 0306/0406 14006KT P6SM FEW060 SCT250
     FM031400 15012KT P6SM VCSH SCT025 BKN050
     FM031900 14018G25KT P6SM SCT035 BKN070
     FM040100 13013KT P6SM SCT015 BKN250=

USA.gov is the U.S. government's official web portal to all federal, state and local government web resources and services.